首页
METAR-TAF:

METAR-TAF

机场 :

努瓜婁發國際機場

汤加塔布岛, 汤加

纬度: 21-14S, 经度: 175-09W, 海拔: 38米

当前天气观测

该预报发布于41分钟前的03:00 UTC
风速3节,风向
温度 28°C
湿度 70%
气压 1010 hPa
能见度10公里或以上
散云层高于1800英尺, 塔状积云.
多云层高于12000英尺

METAR: NFTF 120300Z 35003KT 9999 SCT018TCU BKN120 28/22 Q1010

时间: 16:41 (03:41 UTC)

预报

该预报发布于4小时和19分钟前的23:22 UTC
预报有效从12日的 00点(UTC)到 12日的 24点(UTC)
风速3节,风向多变
能见度10公里或以上
少量云层高于1600英尺

TAF: NFTF 112322Z 1200/1224 VRB03KT 9999 FEW016

超过4000个机场的气象观测和天气预报(METAR&TAF报告)。

可查询的气象台以黄色和红色小点在地图上表示。

将鼠标移到小点上方,可查看气象台名称。

然后点击查看天气观测和预报。

如需切换地图:点击带黑十字的绿色按钮放大地图;点击带横线的绿色按钮缩小地图;或者点击绿色箭头查看邻近地区的地图。


METAR-TAF: